• Join FlightAware (Why Join?)
  • Login
  • US Flag 
03:08AM EDT


 

Airport Tracker/Info


-or-


 

Live Flight TrackerFlight Track Log ✈ ASQ4400 ✈ 05-Sep-2013 ✈ KEWR - CYQB

Flight Track Log - Related Links

Times and Time Zones

All times are in EDT time to prevent confusion due to time zone crossing. See the ASQ4400 flight status page for this flight to view local times or setup timezone preferences in your user account.

Time Position Orientation Groundspeed Altitude Reporting Facility
EDT Latitude Longitude Course Direction KTS MPH feet Rate Location/Type
02:19PM 40.7167 -74.1500 40° Northeast 171 197 1,600  Level New York TRACON
02:20PM 40.7667 -74.1000 37° Northeast 240 276 3,500 2,220 Climbing New York TRACON
02:21PM 40.7833 -74.0167 75° East 267 307 6,300 2,520 Climbing New York TRACON
02:22PM 40.9417 -73.8750 37° Northeast  Level FlightAware Approximate
02:22PM 40.8000 -73.9000 79° East 297 342 8,600  Level New York TRACON
02:23PM 41.0118 -73.8034 40° Northeast  Level FlightAware Approximate
02:24PM 41.0794 -73.7275 40° Northeast  Level FlightAware Approximate
02:25PM 40.9336 -73.6564 54° Northeast 371 427 12,000  Level Boston Center
02:26PM 41.0089 -73.5411 49° Northeast 388 447 13,700 1,680 Climbing Boston Center
02:27PM 41.1147 -73.4919 19° North 377 434 15,500 1,740 Climbing Boston Center
02:28PM 41.2103 -73.4464 20° North 367 422 17,300 1,380 Climbing Boston Center
02:29PM 41.3167 -73.3953 20° North 376 433 18,400 960 Climbing Boston Center
02:30PM 41.4250 -73.3428 20° North 402 463 19,300 900 Climbing Boston Center
02:31PM 41.5281 -73.2625 30° Northeast 434 499 20,300 1,020 Climbing Boston Center
02:32PM 41.6250 -73.2492 North 406 467 21,400 1,140 Climbing Boston Center
02:33PM 41.7364 -73.2542 358° North 400 460 22,700 1,200 Climbing Boston Center
02:34PM 41.8461 -73.2633 356° North 395 455 24,000 1,380 Climbing Boston Center
02:35PM 41.9786 -73.2731 357° North 397 457 25,600 1,320 Climbing Boston Center
02:36PM 42.0872 -73.2808 357° North 390 449 26,800 660 Climbing Boston Center
02:37PM 42.2000 -73.2886 357° North 401 461 27,000 60 Climbing Boston Center
02:38PM 42.3197 -73.2964 357° North 424 488 27,000  Level Boston Center
02:39PM 42.4481 -73.2578 13° North 469 540 27,000  Level Boston Center
02:40PM 42.5794 -73.2053 16° North 480 552 27,000  Level Boston Center
02:41PM 42.7111 -73.1514 17° North 488 562 27,000  Level Boston Center
02:42PM 42.8431 -73.0986 16° North 490 564 27,000  Level Boston Center
02:43PM 42.9744 -73.0450 17° North 490 564 27,000  Level Boston Center
02:44PM 43.1239 -72.9853 16° North 494 568 27,000  Level Boston Center
02:45PM 43.2369 -72.9392 17° North 489 563 27,000  Level Boston Center
02:46PM 43.3886 -72.8775 16° North 474 545 27,000  Level Boston Center
02:47PM 43.5142 -72.8250 17° North 472 543 27,000  Level Boston Center
02:48PM 43.6394 -72.7725 17° North 471 542 27,000  Level Boston Center
02:49PM 43.7633 -72.7214 17° North 466 536 27,000  Level Boston Center
02:50PM 43.8842 -72.6717 17° North 455 524 27,000  Level Boston Center
02:51PM 44.0150 -72.6172 17° North 443 510 27,000  Level Boston Center
02:52PM 44.1325 -72.5669 17° North 444 511 27,000  Level Boston Center
02:53PM 44.2519 -72.5161 17° North 449 517 27,000  Level Boston Center
02:54PM 44.3719 -72.4653 17° North 453 521 27,000  Level Boston Center
02:56PM 44.4925 -72.4142 17° North 456 525 27,000  Level Boston Center
02:57PM 44.6364 -72.3522 17° North 455 524 27,000 -60 Level Boston Center
02:58PM 44.7536 -72.3017 17° North 446 513 26,900 -540 Descending Boston Center
02:59PM 44.8711 -72.2531 16° North 444 511 26,000 -480 Descending Boston Center
03:00PM 44.9897 -72.2008 17° North 449 517 26,000  Level Boston Center
03:01PM 45.1000 -72.1167 28° Northeast 450 518 26,000  Level Montreal Center
03:02PM 45.2167 -72.0667 17° North 450 518 26,000  Level Montreal Center
03:03PM 45.3500 -72.0333 10° North 450 518 26,000  Level Montreal Center
03:04PM 45.4667 -71.9833 17° North 450 518 26,000  Level Montreal Center
03:05PM 45.5833 -71.9167 22° Northeast 450 518 26,000  Level Montreal Center
03:06PM 45.7000 -71.8667 17° North 450 518 26,000 -600 Level Montreal Center
03:07PM 45.8167 -71.8000 22° Northeast 450 518 24,900 -1,380 Descending Montreal Center
03:08PM 45.9500 -71.7500 15° North 440 506 23,300 -1,620 Descending Montreal Center
03:09PM 46.0500 -71.7167 13° North 430 495 21,700 -1,800 Descending Montreal Center
03:10PM 46.1667 -71.6833 11° North 400 460 19,800 -1,800 Descending Montreal Center
03:11PM 46.2667 -71.6500 13° North 380 437 18,100 -1,800 Descending Montreal Center
03:12PM 46.3667 -71.6000 19° North 380 437 16,200 -2,040 Descending Montreal Center
03:13PM 46.4500 -71.5167 35° Northeast 380 437 14,100 -2,100 Descending Montreal Center
03:14PM 46.5333 -71.4333 35° Northeast 360 414 12,100 -1,800 Descending Montreal Center
03:15PM 46.6000 -71.3500 41° Northeast 310 357 10,600 -1,560 Descending Montreal Center
03:16PM 46.6667 -71.3000 27° Northeast 270 311 9,000 -1,860 Descending Montreal Center
03:17PM 46.7333 -71.2167 41° Northeast 270 311 6,900 -1,680 Descending Montreal Center
03:18PM 46.8000 -71.1667 27° Northeast 250 288 5,700 -1,260 Descending Montreal Center
03:19PM 46.8333 -71.1000 54° Northeast 210 242 4,400 -900 Descending Montreal Center
03:20PM 46.9000 -71.1333 341° North 190 219 4,000 -600 Descending Montreal Center
03:21PM 46.9000 -71.2000 270° West 170 196 3,300 -780 Descending Montreal Center
03:22PM 46.8667 -71.2500 226° Southwest 170 196 2,500 -780 Descending Montreal Center
03:23PM 46.8333 -71.2833 214° Southwest 150 173 1,800 -780 Descending Montreal Center
03:24PM 46.8167 -71.3333 244° Southwest 150 173 1,000 -780 Descending Montreal Center
03:25PM 46.7833 -71.3833 226° Southwest 150 173 300 -720 Descending Montreal Center